createdAt,value
2018-04-29T00:00:04.735Z,59.7
2018-04-29T00:00:54.505Z,59.7
2018-04-29T00:01:44.564Z,59.7
2018-04-29T00:02:34.911Z,59.6
2018-04-29T00:03:24.994Z,59.7
2018-04-29T00:04:15.058Z,59.6
2018-04-29T00:05:04.800Z,59.6
2018-04-29T00:05:55.169Z,59.6
2018-04-29T00:06:44.705Z,59.6
2018-04-29T00:07:35.313Z,59.6
2018-04-29T00:08:25.099Z,59.6
2018-04-29T00:09:14.881Z,59.6
2018-04-29T00:10:05.523Z,59.6
2018-04-29T00:10:55.089Z,59.6
2018-04-29T00:11:45.608Z,59.6
2018-04-29T00:12:35.133Z,59.6
2018-04-29T00:13:25.471Z,59.6
2018-04-29T00:14:15.630Z,59.6
2018-04-29T00:15:05.886Z,59.6
2018-04-29T00:15:55.654Z,59.6
2018-04-29T00:16:46.013Z,59.6
2018-04-29T00:17:35.802Z,59.5
2018-04-29T00:18:25.854Z,59.5
2018-04-29T00:19:15.925Z,59.5
2018-04-29T00:20:06.275Z,59.5
2018-04-29T00:20:56.418Z,59.5
2018-04-29T00:21:46.379Z,59.5
2018-04-29T00:22:35.901Z,59.5
2018-04-29T00:23:25.418Z,59.5
2018-04-29T00:24:16.401Z,59.5
2018-04-29T00:25:06.123Z,59.5
2018-04-29T00:25:56.453Z,59.4
2018-04-29T00:26:46.780Z,59.4
2018-04-29T00:27:36.031Z,59.4
2018-04-29T00:28:26.643Z,59.4
2018-04-29T00:29:16.689Z,59.4
2018-04-29T00:30:06.775Z,59.4
2018-04-29T00:30:57.109Z,59.4
2018-04-29T00:31:47.187Z,59.4
2018-04-29T00:32:37.268Z,59.4
2018-04-29T00:33:27.022Z,59.4
2018-04-29T00:34:17.091Z,59.4
2018-04-29T00:35:07.438Z,59.4
2018-04-29T00:35:57.517Z,59.4
2018-04-29T00:36:47.008Z,59.4
2018-04-29T00:37:37.642Z,59.4
2018-04-29T00:38:27.125Z,59.3
2018-04-29T00:39:17.735Z,59.4
2018-04-29T00:40:06.964Z,59.3
2018-04-29T00:40:57.318Z,59.3
2018-04-29T00:41:47.654Z,59.3
2018-04-29T00:42:37.472Z,59.3
2018-04-29T00:43:27.789Z,59.3
2018-04-29T00:44:18.142Z,59.3
2018-04-29T00:45:08.202Z,59.3
2018-04-29T00:45:57.717Z,59.3
2018-04-29T00:46:48.321Z,59.3
2018-04-29T00:47:38.137Z,59.3
2018-04-29T00:48:28.462Z,59.3
2018-04-29T00:49:18.529Z,59.3
2018-04-29T00:50:07.503Z,59.3
2018-04-29T00:50:58.705Z,59.3
2018-04-29T00:51:48.423Z,59.3
2018-04-29T00:52:38.212Z,59.2
2018-04-29T00:53:28.816Z,59.2
2018-04-29T00:54:18.940Z,59.2
2018-04-29T00:55:08.976Z,59.2
2018-04-29T00:55:58.471Z,59.2
2018-04-29T00:56:49.110Z,59.2
2018-04-29T00:57:39.170Z,59.2
2018-04-29T00:58:29.235Z,59.1
2018-04-29T00:59:19.010Z,59.1
2018-04-29T01:00:09.356Z,59.2
2018-04-29T01:00:58.846Z,59.1
2018-04-29T01:01:49.229Z,59.1
2018-04-29T01:02:39.287Z,59.1
2018-04-29T01:03:29.620Z,59.1
2018-04-29T01:04:19.459Z,59.1
2018-04-29T01:05:09.482Z,59.1
2018-04-29T01:06:00.223Z,59.1
2018-04-29T01:06:49.950Z,59.1
2018-04-29T01:07:39.676Z,59.1
2018-04-29T01:08:30.074Z,59.1
2018-04-29T01:09:20.050Z,59.1
2018-04-29T01:10:10.128Z,59.1
2018-04-29T01:11:00.185Z,59.1
2018-04-29T01:11:49.707Z,59.1
2018-04-29T01:12:40.040Z,59
2018-04-29T01:13:29.856Z,59.1
2018-04-29T01:14:20.460Z,59.1
2018-04-29T01:15:10.259Z,59
2018-04-29T01:16:00.294Z,59
2018-04-29T01:16:50.435Z,59
2018-04-29T01:17:40.694Z,59
2018-04-29T01:18:30.535Z,59
2018-04-29T01:19:20.604Z,59
2018-04-29T01:20:10.632Z,59
2018-04-29T01:21:00.696Z,58.9
2018-04-29T01:21:51.032Z,58.9
2018-04-29T01:22:41.103Z,58.9
2018-04-29T01:23:30.900Z,58.9
2018-04-29T01:24:20.669Z,58.9
2018-04-29T01:25:11.037Z,58.9
2018-04-29T01:26:01.085Z,58.9
2018-04-29T01:26:51.430Z,58.9
2018-04-29T01:27:41.492Z,58.9
2018-04-29T01:28:31.576Z,58.9
2018-04-29T01:29:21.365Z,58.9
2018-04-29T01:30:11.673Z,58.9
2018-04-29T01:31:01.195Z,58.9
2018-04-29T01:31:51.547Z,58.9
2018-04-29T01:32:41.889Z,58.9
2018-04-29T01:33:31.950Z,58.9
2018-04-29T01:34:21.990Z,58.9
2018-04-29T01:35:12.066Z,58.8
2018-04-29T01:36:01.864Z,58.9
2018-04-29T01:36:52.183Z,58.8
2018-04-29T01:37:42.265Z,58.8
2018-04-29T01:38:32.034Z,58.8
2018-04-29T01:39:22.406Z,58.8
2018-04-29T01:40:12.220Z,58.8
2018-04-29T01:41:02.290Z,58.8
2018-04-29T01:41:52.331Z,58.8
2018-04-29T01:42:41.821Z,58.8
2018-04-29T01:43:32.144Z,58.8
2018-04-29T01:44:22.229Z,58.8
2018-04-29T01:45:12.570Z,58.8
2018-04-29T01:46:02.907Z,58.8
2018-04-29T01:46:52.419Z,58.8
2018-04-29T01:47:42.762Z,58.7
2018-04-29T01:48:33.108Z,58.7
2018-04-29T01:49:23.161Z,58.8
2018-04-29T01:50:13.243Z,58.7
2018-04-29T01:51:03.315Z,58.7
2018-04-29T01:51:53.094Z,58.7
2018-04-29T01:52:43.410Z,58.7
2018-04-29T01:53:32.941Z,58.7
2018-04-29T01:54:23.541Z,58.7
2018-04-29T01:55:13.371Z,58.6
2018-04-29T01:56:03.431Z,58.7
2018-04-29T01:56:53.491Z,58.7
2018-04-29T01:57:43.555Z,58.6
2018-04-29T01:58:33.061Z,58.6
2018-04-29T01:59:23.395Z,58.6
2018-04-29T02:00:13.746Z,58.6
2018-04-29T02:01:04.071Z,58.6
2018-04-29T02:01:54.153Z,58.6
2018-04-29T02:02:43.949Z,58.6
2018-04-29T02:11:04.592Z,58.5
2018-04-29T02:11:54.651Z,58.5
2018-04-29T02:12:44.730Z,58.5
2018-04-29T02:13:34.234Z,58.5
2018-04-29T02:14:24.831Z,58.5
2018-04-29T02:15:14.949Z,58.5
2018-04-29T02:16:05.243Z,58.5
2018-04-29T02:16:55.300Z,58.5
2018-04-29T02:17:45.106Z,58.5
2018-04-29T02:18:35.172Z,58.4
2018-04-29T02:19:25.503Z,58.4
2018-04-29T02:20:15.313Z,58.4
2018-04-29T02:21:05.082Z,58.4
2018-04-29T02:21:55.691Z,58.4
2018-04-29T02:22:44.924Z,58.4
2018-04-29T02:23:35.806Z,58.4
2018-04-29T02:24:25.889Z,58.4
2018-04-29T02:25:15.952Z,58.4
2018-04-29T02:26:05.460Z,58.4
2018-04-29T02:26:55.803Z,58.4
2018-04-29T02:27:45.609Z,58.4
2018-04-29T02:28:35.934Z,58.4
2018-04-29T02:29:26.022Z,58.4
2018-04-29T02:30:16.110Z,58.4
2018-04-29T02:31:06.428Z,58.4
2018-04-29T02:31:56.212Z,58.3
2018-04-29T02:32:46.571Z,58.3
2018-04-29T02:33:36.076Z,58.3
2018-04-29T02:34:25.545Z,58.3
2018-04-29T02:35:16.717Z,58.3
2018-04-29T02:36:06.812Z,58.3
2018-04-29T02:36:56.882Z,58.3
2018-04-29T02:37:46.923Z,58.3
2018-04-29T02:38:36.821Z,58.3
2018-04-29T02:39:26.847Z,58.3
2018-04-29T02:40:17.131Z,58.3
2018-04-29T02:41:06.943Z,58.3
2018-04-29T02:41:56.989Z,58.3
2018-04-29T02:42:47.036Z,58.3
2018-04-29T02:43:37.107Z,58.3
2018-04-29T02:44:27.478Z,58.3
2018-04-29T02:45:17.247Z,58.2
2018-04-29T02:46:07.110Z,58.2
2018-04-29T02:46:57.387Z,58.2
2018-04-29T02:47:47.731Z,58.2
2018-04-29T02:48:37.758Z,58.2
2018-04-29T02:49:27.572Z,58.2
2018-04-29T02:50:17.916Z,58.2
2018-04-29T02:51:07.982Z,58.2
2018-04-29T02:51:58.031Z,58.2
2018-04-29T02:52:47.852Z,58.1
2018-04-29T02:53:37.913Z,58.2
2018-04-29T02:54:28.259Z,58.2
2018-04-29T02:55:18.075Z,58.1
2018-04-29T02:56:08.095Z,58.1
2018-04-29T02:56:58.488Z,58.1
2018-04-29T02:57:48.579Z,58.1
2018-04-29T02:58:38.566Z,58.1
2018-04-29T02:59:28.062Z,58.1
2018-04-29T03:00:18.401Z,58.1
2018-04-29T03:01:08.202Z,58.1
2018-04-29T03:01:58.856Z,58.1
2018-04-29T03:02:48.920Z,58.1
2018-04-29T03:03:38.977Z,58.1
2018-04-29T03:04:28.752Z,58.1
2018-04-29T03:05:18.800Z,58.1
2018-04-29T03:06:08.594Z,58.1
2018-04-29T03:06:59.239Z,58.1
2018-04-29T03:07:49.266Z,58.1
2018-04-29T03:08:39.047Z,58
2018-04-29T03:09:29.120Z,58
2018-04-29T03:10:18.904Z,58
2018-04-29T03:11:09.547Z,58
2018-04-29T03:11:59.329Z,58
2018-04-29T03:12:49.683Z,58
2018-04-29T03:13:39.424Z,58
2018-04-29T03:14:29.815Z,57.9
2018-04-29T03:15:19.926Z,57.9
2018-04-29T03:16:09.896Z,57.9
2018-04-29T03:16:59.684Z,57.9
2018-04-29T03:17:49.789Z,57.9
2018-04-29T03:18:40.151Z,57.9
2018-04-29T03:19:29.894Z,57.9
2018-04-29T03:20:19.688Z,57.9
2018-04-29T03:21:09.720Z,57.9
2018-04-29T03:22:00.364Z,57.9
2018-04-29T03:22:50.149Z,57.9
2018-04-29T03:23:40.477Z,57.9
2018-04-29T03:24:30.548Z,57.9
2018-04-29T03:25:20.347Z,57.9
2018-04-29T03:26:10.689Z,57.9
2018-04-29T03:27:00.444Z,57.9
2018-04-29T03:27:50.790Z,57.9
2018-04-29T03:28:40.870Z,57.9
2018-04-29T03:29:30.708Z,57.8
2018-04-29T03:30:21.067Z,57.8
2018-04-29T03:31:10.805Z,57.8
2018-04-29T03:32:00.587Z,57.8
2018-04-29T03:32:50.917Z,57.8
2018-04-29T03:33:41.254Z,57.8
2018-04-29T03:34:31.332Z,57.8
2018-04-29T03:35:21.164Z,57.8
2018-04-29T03:42:52.005Z,57.7
2018-04-29T03:43:42.069Z,57.7
2018-04-29T03:44:32.099Z,57.7
2018-04-29T03:45:21.598Z,57.7
2018-04-29T03:46:12.256Z,57.7
2018-04-29T03:47:02.024Z,57.7
2018-04-29T03:47:52.431Z,57.7
2018-04-29T03:48:42.148Z,57.7
2018-04-29T03:49:32.225Z,57.6
2018-04-29T03:50:22.297Z,57.6
2018-04-29T03:51:12.627Z,57.6
2018-04-29T03:52:02.686Z,57.6
2018-04-29T03:52:52.503Z,57.6
2018-04-29T03:53:42.844Z,57.6
2018-04-29T03:54:32.876Z,57.6
2018-04-29T03:55:22.946Z,57.6
2018-04-29T03:56:12.429Z,57.6
2018-04-29T03:57:02.878Z,57.6
2018-04-29T03:57:52.857Z,57.6
2018-04-29T03:58:43.272Z,57.6
2018-04-29T03:59:32.985Z,57.6
2018-04-29T04:00:23.326Z,57.6
2018-04-29T04:01:13.111Z,57.6
2018-04-29T04:02:03.479Z,57.6
2018-04-29T04:02:53.622Z,57.6
2018-04-29T04:03:43.325Z,57.5
2018-04-29T04:04:33.700Z,57.6
2018-04-29T04:05:23.170Z,57.5
2018-04-29T04:06:13.761Z,57.5
2018-04-29T04:07:03.851Z,57.5
2018-04-29T04:07:53.062Z,57.5
2018-04-29T04:08:43.680Z,57.5
2018-04-29T04:09:33.842Z,57.5
2018-04-29T04:10:24.101Z,57.5
2018-04-29T04:11:14.169Z,57.5
2018-04-29T04:12:04.218Z,57.4
2018-04-29T04:12:54.022Z,57.5
2018-04-29T04:13:44.382Z,57.4
2018-04-29T04:14:34.399Z,57.4
2018-04-29T04:15:24.485Z,57.4
2018-04-29T04:16:14.283Z,57.4
2018-04-29T04:17:04.053Z,57.4
2018-04-29T04:17:54.410Z,57.4
2018-04-29T04:18:44.484Z,57.4
2018-04-29T04:19:33.992Z,57.4
2018-04-29T04:20:24.891Z,57.4
2018-04-29T04:21:14.390Z,57.4
2018-04-29T04:22:05.031Z,57.4
2018-04-29T04:22:55.105Z,57.4
2018-04-29T04:23:45.515Z,57.4
2018-04-29T04:24:35.250Z,57.4
2018-04-29T04:25:25.258Z,57.3
2018-04-29T04:26:15.318Z,57.3
2018-04-29T04:27:04.858Z,57.3
2018-04-29T04:27:55.481Z,57.3
2018-04-29T04:28:45.541Z,57.3
2018-04-29T04:29:35.610Z,57.3
2018-04-29T04:30:25.111Z,57.3
2018-04-29T04:31:15.786Z,57.3
2018-04-29T04:32:05.792Z,57.3
2018-04-29T04:32:55.852Z,57.3
2018-04-29T04:33:45.384Z,57.3
2018-04-29T04:34:35.987Z,57.3
2018-04-29T04:35:25.770Z,57.3
2018-04-29T04:36:16.097Z,57.3
2018-04-29T04:37:05.336Z,57.3
2018-04-29T04:37:56.248Z,57.3
2018-04-29T04:38:46.035Z,57.3
2018-04-29T04:39:36.377Z,57.3
2018-04-29T04:40:25.592Z,57.2
2018-04-29T04:41:15.946Z,57.2
2018-04-29T04:42:06.555Z,57.2
2018-04-29T04:42:56.387Z,57.2
2018-04-29T04:43:46.672Z,57.2
2018-04-29T04:44:36.193Z,57.2
2018-04-29T04:45:26.855Z,57.2
2018-04-29T04:46:16.910Z,57.2
2018-04-29T04:47:06.944Z,57.2
2018-04-29T04:47:56.743Z,57.1
2018-04-29T04:49:22.858Z,57.1
2018-04-29T04:49:37.162Z,57.1
2018-04-29T04:50:26.695Z,57.1
2018-04-29T04:51:16.717Z,57.1
2018-04-29T04:52:07.335Z,57.1
2018-04-29T04:52:56.877Z,57.1
2018-04-29T04:53:47.465Z,57.1
2018-04-29T04:54:37.560Z,57.1
2018-04-29T04:55:27.607Z,57.1
2018-04-29T04:56:17.672Z,57.1
2018-04-29T04:57:07.247Z,57.1
2018-04-29T04:57:57.877Z,57.1
2018-04-29T04:58:47.888Z,57.1
2018-04-29T04:59:37.950Z,57.1
2018-04-29T05:00:27.441Z,57.1
2018-04-29T05:01:17.541Z,57.1
2018-04-29T05:02:07.577Z,57.1
2018-04-29T05:02:57.924Z,57
2018-04-29T05:03:48.269Z,57
2018-04-29T05:04:38.377Z,57
2018-04-29T05:05:28.381Z,57
2018-04-29T05:06:18.184Z,57
2018-04-29T05:07:08.522Z,57
2018-04-29T05:07:58.296Z,57
2018-04-29T05:08:48.361Z,57
2018-04-29T05:09:38.164Z,56.9
2018-04-29T05:10:28.802Z,56.9
2018-04-29T05:11:18.359Z,56.9
2018-04-29T05:12:08.346Z,56.9
2018-04-29T05:12:58.683Z,56.9
2018-04-29T05:13:49.995Z,56.9
2018-04-29T05:14:38.543Z,56.9
2018-04-29T05:15:29.188Z,56.9
2018-04-29T05:16:19.244Z,56.9
2018-04-29T05:17:09.290Z,56.9
2018-04-29T05:17:58.789Z,56.9
2018-04-29T05:18:48.924Z,56.9
2018-04-29T05:19:39.490Z,56.9
2018-04-29T05:20:29.611Z,56.9
2018-04-29T05:21:19.603Z,56.9
2018-04-29T05:22:10.119Z,56.9
2018-04-29T05:22:59.760Z,56.9
2018-04-29T05:23:49.805Z,56.9
2018-04-29T05:24:39.588Z,56.9
2018-04-29T05:25:29.657Z,56.8
2018-04-29T05:26:19.734Z,56.8
2018-04-29T05:27:10.042Z,56.8
2018-04-29T05:27:59.557Z,56.8
2018-04-29T05:28:50.194Z,56.8
2018-04-29T05:29:40.228Z,56.8
2018-04-29T05:30:30.304Z,56.8
2018-04-29T05:31:20.402Z,56.8
2018-04-29T05:32:10.226Z,56.8
2018-04-29T05:33:00.489Z,56.8
2018-04-29T05:33:49.722Z,56.8
2018-04-29T05:34:40.390Z,56.8
2018-04-29T05:35:31.458Z,56.8
2018-04-29T05:36:20.756Z,56.8
2018-04-29T05:37:10.824Z,56.8
2018-04-29T05:38:00.911Z,56.8
2018-04-29T05:38:50.938Z,56.8
2018-04-29T05:39:40.465Z,56.8
2018-04-29T05:40:30.809Z,56.8
2018-04-29T05:41:21.156Z,56.7
2018-04-29T05:42:11.201Z,56.7
2018-04-29T05:43:01.270Z,56.7
2018-04-29T05:43:51.063Z,56.7
2018-04-29T05:44:41.126Z,56.7
2018-04-29T05:45:31.466Z,56.7
2018-04-29T05:46:21.538Z,56.7
2018-04-29T05:47:11.321Z,56.6
2018-04-29T05:48:01.396Z,56.6
2018-04-29T05:48:51.453Z,56.6
2018-04-29T05:49:41.797Z,56.6
2018-04-29T05:50:31.872Z,56.6
2018-04-29T05:51:21.930Z,56.6
2018-04-29T05:52:11.459Z,56.6
2018-04-29T05:53:01.790Z,56.6
2018-04-29T05:53:51.575Z,56.6
2018-04-29T05:54:41.933Z,56.6
2018-04-29T05:55:31.697Z,56.6
2018-04-29T05:56:21.750Z,56.6
2018-04-29T05:57:12.109Z,56.6
2018-04-29T05:58:02.456Z,56.6
2018-04-29T05:58:51.967Z,56.6
2018-04-29T05:59:42.577Z,56.6
2018-04-29T06:00:32.404Z,56.6
2018-04-29T06:01:22.444Z,56.6
2018-04-29T06:02:12.769Z,56.6
2018-04-29T06:03:02.557Z,56.6
2018-04-29T06:03:52.627Z,56.5
2018-04-29T06:04:42.979Z,56.5
2018-04-29T06:05:32.486Z,56.5
2018-04-29T06:06:23.521Z,56.5
2018-04-29T06:07:13.179Z,56.5
2018-04-29T06:08:03.213Z,56.5
2018-04-29T06:08:53.276Z,56.5
2018-04-29T06:09:43.356Z,56.5
2018-04-29T06:10:33.138Z,56.4
2018-04-29T06:11:23.190Z,56.4
2018-04-29T06:12:13.283Z,56.4
2018-04-29T06:13:03.613Z,56.4
2018-04-29T06:13:53.431Z,56.4
2018-04-29T06:14:43.719Z,56.4
2018-04-29T06:15:33.828Z,56.4
2018-04-29T06:16:23.324Z,56.4
2018-04-29T06:17:13.925Z,56.4
2018-04-29T06:18:03.713Z,56.4
2018-04-29T06:18:53.316Z,56.4
2018-04-29T06:19:43.878Z,56.4
2018-04-29T06:20:34.575Z,56.4
2018-04-29T06:21:24.249Z,56.4
2018-04-29T06:22:14.046Z,56.4
2018-04-29T06:23:03.819Z,56.4
2018-04-29T06:23:54.471Z,56.4
2018-04-29T06:24:44.236Z,56.4
2018-04-29T06:25:34.318Z,56.4
2018-04-29T06:26:24.379Z,56.4
2018-04-29T06:27:14.704Z,56.4
2018-04-29T06:28:04.518Z,56.3
2018-04-29T06:28:54.555Z,56.3
2018-04-29T06:29:44.893Z,56.3
2018-04-29T06:30:34.774Z,56.3
2018-04-29T06:31:25.031Z,56.3
2018-04-29T06:32:15.125Z,56.3
2018-04-29T06:33:04.598Z,56.3
2018-04-29T06:33:54.945Z,56.3
2018-04-29T06:34:45.307Z,56.3
2018-04-29T06:35:35.109Z,56.3
2018-04-29T06:36:25.160Z,56.3
2018-04-29T06:37:14.918Z,56.3
2018-04-29T06:38:04.993Z,56.3
2018-04-29T06:38:55.919Z,56.3
2018-04-29T06:39:45.680Z,56.3
2018-04-29T06:40:35.767Z,56.3
2018-04-29T06:41:25.541Z,56.3
2018-04-29T06:42:15.640Z,56.3
2018-04-29T06:43:05.930Z,56.2
2018-04-29T06:43:55.723Z,56.2
2018-04-29T06:44:46.090Z,56.2
2018-04-29T06:45:35.845Z,56.2
2018-04-29T06:46:25.928Z,56.2
2018-04-29T06:47:16.315Z,56.2
2018-04-29T06:48:05.872Z,56.2
2018-04-29T06:48:56.415Z,56.2
2018-04-29T06:49:46.485Z,56.2
2018-04-29T06:50:36.543Z,56.1
2018-04-29T06:51:26.134Z,56.1
2018-04-29T06:52:16.133Z,56.1
2018-04-29T06:53:06.439Z,56.1
2018-04-29T06:53:56.816Z,56.1
2018-04-29T06:54:46.884Z,56.1
2018-04-29T06:55:36.920Z,56.1
2018-04-29T06:56:26.443Z,56.1
2018-04-29T06:57:17.088Z,56.1
2018-04-29T06:58:07.125Z,56.1
2018-04-29T06:58:56.945Z,56.1
2018-04-29T06:59:47.001Z,56.1
2018-04-29T07:00:37.070Z,56.1
2018-04-29T07:01:27.116Z,56.1
2018-04-29T07:02:17.451Z,56
2018-04-29T07:03:06.974Z,56
2018-04-29T07:03:56.819Z,56.1
2018-04-29T07:04:47.409Z,56
2018-04-29T07:05:37.453Z,56
2018-04-29T07:06:27.524Z,56
2018-04-29T07:07:17.092Z,56
2018-04-29T07:08:08.356Z,56
2018-04-29T07:08:57.213Z,56
2018-04-29T07:09:47.769Z,56
2018-04-29T07:10:38.140Z,55.9
2018-04-29T07:11:28.156Z,55.9
2018-04-29T07:12:17.960Z,55.9
2018-04-29T07:13:08.311Z,55.9
2018-04-29T07:13:58.379Z,55.9
2018-04-29T07:14:48.016Z,55.9
2018-04-29T07:15:38.500Z,55.9
2018-04-29T07:16:28.314Z,55.9
2018-04-29T07:17:18.364Z,55.9
2018-04-29T07:18:08.178Z,55.9
2018-04-29T07:18:58.220Z,55.9
2018-04-29T07:19:48.560Z,55.9
2018-04-29T07:20:38.893Z,55.9
2018-04-29T07:21:28.480Z,55.9
2018-04-29T07:22:19.040Z,55.9
2018-04-29T07:23:08.815Z,55.9
2018-04-29T07:23:59.205Z,55.8
2018-04-29T07:24:49.268Z,55.9
2018-04-29T07:25:39.304Z,55.8
2018-04-29T07:26:29.103Z,55.8
2018-04-29T07:27:19.437Z,55.8
2018-04-29T07:28:09.510Z,55.8
2018-04-29T07:28:59.285Z,55.8
2018-04-29T07:29:49.154Z,55.8
2018-04-29T07:30:39.413Z,55.8
2018-04-29T07:31:29.776Z,55.8
2018-04-29T07:32:19.864Z,55.8
2018-04-29T07:33:09.620Z,55.8
2018-04-29T07:33:59.414Z,55.8
2018-04-29T07:34:50.028Z,55.8
2018-04-29T07:35:40.100Z,55.8
2018-04-29T07:36:29.682Z,55.8
2018-04-29T07:37:20.218Z,55.8
2018-04-29T07:38:10.317Z,55.8
2018-04-29T07:39:00.355Z,55.8
2018-04-29T07:39:49.394Z,55.7
2018-04-29T07:40:40.519Z,55.7
2018-04-29T07:41:30.574Z,55.7
2018-04-29T07:42:19.792Z,55.7
2018-04-29T07:43:10.680Z,55.7
2018-04-29T07:44:00.482Z,55.7
2018-04-29T07:44:50.822Z,55.7
2018-04-29T07:45:40.308Z,55.6
2018-04-29T07:46:31.392Z,55.7
2018-04-29T07:47:20.204Z,55.6
2018-04-29T07:48:10.889Z,55.6
2018-04-29T07:49:01.161Z,55.6
2018-04-29T07:49:51.295Z,55.6
2018-04-29T07:50:41.286Z,55.6
2018-04-29T07:51:31.345Z,55.6
2018-04-29T07:52:22.035Z,55.6
2018-04-29T07:53:11.499Z,55.6
2018-04-29T07:54:01.300Z,55.6
2018-04-29T07:54:51.439Z,55.6
2018-04-29T07:55:41.438Z,55.6
2018-04-29T07:56:31.492Z,55.6
2018-04-29T07:57:21.804Z,55.6
2018-04-29T07:58:11.866Z,55.6
2018-04-29T07:59:01.954Z,55.6
2018-04-29T07:59:51.735Z,55.6
2018-04-29T08:00:42.507Z,55.6
2018-04-29T08:01:32.154Z,55.6
2018-04-29T08:02:22.198Z,55.5
2018-04-29T08:03:11.737Z,55.5
2018-04-29T08:04:01.213Z,55.5
2018-04-29T08:04:52.147Z,55.5
2018-04-29T08:05:42.193Z,55.5
2018-04-29T08:06:31.975Z,55.5
2018-04-29T08:07:22.321Z,55.5
2018-04-29T08:08:12.700Z,55.4
2018-04-29T08:09:02.721Z,55.4
2018-04-29T08:09:52.839Z,55.4
2018-04-29T08:10:42.925Z,55.4
2018-04-29T08:11:32.932Z,55.4
2018-04-29T08:12:23.018Z,55.4
2018-04-29T08:13:13.051Z,55.4
2018-04-29T08:14:02.912Z,55.4
2018-04-29T08:14:52.992Z,55.4
2018-04-29T08:15:43.625Z,55.4
2018-04-29T08:16:33.074Z,55.4
2018-04-29T08:17:22.665Z,55.4
2018-04-29T08:18:13.165Z,55.4
2018-04-29T08:19:03.545Z,55.4
2018-04-29T08:19:53.291Z,55.4
2018-04-29T08:20:43.381Z,55.4
2018-04-29T08:21:33.215Z,55.4
2018-04-29T08:22:23.508Z,55.4
2018-04-29T08:23:13.353Z,55.4
2018-04-29T08:24:03.439Z,55.4
2018-04-29T08:24:52.942Z,55.5
2018-04-29T08:25:43.490Z,55.5
2018-04-29T08:26:34.123Z,55.6
2018-04-29T08:27:23.910Z,55.6
2018-04-29T08:28:14.244Z,55.6
2018-04-29T08:29:04.038Z,55.7
2018-04-29T08:29:54.377Z,55.7
2018-04-29T08:30:43.599Z,55.7
2018-04-29T08:31:34.500Z,55.8
2018-04-29T08:32:24.306Z,55.8
2018-04-29T08:33:14.642Z,55.8
2018-04-29T08:34:04.431Z,55.9
2018-04-29T08:34:54.762Z,55.9
2018-04-29T08:35:44.274Z,55.9
2018-04-29T08:36:34.695Z,56
2018-04-29T08:37:25.008Z,56.1
2018-04-29T08:38:15.069Z,56.1
2018-04-29T08:39:05.108Z,56.1
2018-04-29T08:39:54.897Z,56.2
2018-04-29T08:40:44.966Z,56.2
2018-04-29T08:41:35.322Z,56.3
2018-04-29T08:42:24.550Z,56.3
2018-04-29T08:43:15.583Z,56.3
2018-04-29T08:44:05.219Z,56.4
2018-04-29T08:44:55.276Z,56.4
2018-04-29T08:45:45.329Z,56.4
2018-04-29T08:46:35.754Z,56.4
2018-04-29T08:47:25.479Z,56.5
2018-04-29T08:48:15.816Z,56.6
2018-04-29T08:49:05.905Z,56.6
2018-04-29T08:49:55.975Z,56.6
2018-04-29T08:50:46.017Z,56.7
2018-04-29T08:51:36.101Z,56.8
2018-04-29T08:52:26.148Z,56.8
2018-04-29T08:53:16.221Z,56.8
2018-04-29T08:54:06.281Z,56.9
2018-04-29T08:54:56.879Z,56.9
2018-04-29T08:55:46.133Z,56.9
2018-04-29T08:56:36.494Z,57
2018-04-29T08:57:26.298Z,57
2018-04-29T08:58:16.148Z,57.1
2018-04-29T08:59:06.391Z,57.1
2018-04-29T08:59:56.741Z,57.2
2018-04-29T09:00:46.523Z,57.2
2018-04-29T09:01:37.040Z,57.3
2018-04-29T09:02:26.375Z,57.3
2018-04-29T09:03:16.445Z,57.3
2018-04-29T09:04:07.088Z,57.4
2018-04-29T09:04:56.593Z,57.4
2018-04-29T09:05:46.968Z,57.4
2018-04-29T09:06:37.036Z,57.4
2018-04-29T09:07:27.339Z,57.4
2018-04-29T09:08:17.150Z,57.4
2018-04-29T09:09:07.480Z,57.5
2018-04-29T09:09:57.263Z,57.4
2018-04-29T09:10:47.348Z,57.5
2018-04-29T09:11:37.685Z,57.5
2018-04-29T09:12:27.766Z,57.4
2018-04-29T09:13:17.543Z,57.5
2018-04-29T09:14:07.632Z,57.4
2018-04-29T09:14:57.669Z,57.4
2018-04-29T09:15:47.751Z,57.4
2018-04-29T09:16:37.825Z,57.4
2018-04-29T09:17:28.148Z,57.4
2018-04-29T09:18:18.221Z,57.4
2018-04-29T09:19:08.280Z,57.4
2018-04-29T09:19:58.363Z,57.4
2018-04-29T09:20:48.150Z,57.4
2018-04-29T09:21:38.182Z,57.4
2018-04-29T09:22:28.286Z,57.4
2018-04-29T09:23:18.597Z,57.4
2018-04-29T09:24:08.744Z,57.4
2018-04-29T09:24:58.729Z,57.4
2018-04-29T09:25:48.323Z,57.4
2018-04-29T09:26:38.890Z,57.4
2018-04-29T09:27:28.955Z,57.4
2018-04-29T09:28:19.072Z,57.4
2018-04-29T09:29:08.774Z,57.4
2018-04-29T09:29:59.141Z,57.4
2018-04-29T09:30:48.617Z,57.4
2018-04-29T09:31:39.249Z,57.4
2018-04-29T09:32:29.304Z,57.5
2018-04-29T09:33:18.819Z,57.5
2018-04-29T09:34:08.904Z,57.6
2018-04-29T09:34:59.268Z,57.6
2018-04-29T09:35:49.056Z,57.6
2018-04-29T09:36:39.451Z,57.6
2018-04-29T09:37:29.737Z,57.6
2018-04-29T09:38:19.809Z,57.7
2018-04-29T09:39:09.869Z,57.7
2018-04-29T09:39:59.384Z,57.7
2018-04-29T09:42:30.153Z,57.8
2018-04-29T09:43:20.461Z,57.8
2018-04-29T09:44:10.261Z,57.9
2018-04-29T09:44:59.783Z,57.9
2018-04-29T09:45:49.549Z,57.9
2018-04-29T09:46:40.472Z,57.9
2018-04-29T09:47:30.220Z,57.9
2018-04-29T09:48:20.577Z,58
2018-04-29T09:49:10.108Z,58
2018-04-29T09:50:00.436Z,58.1
2018-04-29T09:50:50.024Z,58.1
2018-04-29T09:51:40.883Z,58.1
2018-04-29T09:52:30.960Z,58.1
2018-04-29T09:53:20.993Z,58.2
2018-04-29T09:54:11.049Z,58.2
2018-04-29T09:55:00.838Z,58.3
2018-04-29T09:55:51.197Z,58.3
2018-04-29T09:56:40.972Z,58.3
2018-04-29T09:57:30.472Z,58.4
2018-04-29T09:58:20.867Z,58.4
2018-04-29T09:59:11.166Z,58.4
2018-04-29T10:00:01.248Z,58.5
2018-04-29T10:00:51.313Z,58.5
2018-04-29T10:03:21.534Z,58.6
2018-04-29T10:04:11.590Z,58.7
2018-04-29T10:05:01.360Z,58.7
2018-04-29T10:05:51.996Z,58.8
2018-04-29T10:06:42.057Z,58.8
2018-04-29T10:07:31.278Z,58.9
2018-04-29T10:08:22.161Z,58.9
2018-04-29T10:09:12.000Z,58.9
2018-04-29T10:10:02.340Z,59
2018-04-29T10:10:51.545Z,59
2018-04-29T10:11:42.455Z,59.1
2018-04-29T10:12:32.518Z,59.1
2018-04-29T10:13:22.586Z,59.1
2018-04-29T10:14:12.388Z,59.2
2018-04-29T10:15:02.438Z,59.3
2018-04-29T10:15:52.804Z,59.3
2018-04-29T10:16:42.295Z,59.3
2018-04-29T10:17:32.640Z,59.4
2018-04-29T10:18:23.016Z,59.4
2018-04-29T10:19:13.068Z,59.5
2018-04-29T10:20:03.132Z,59.6
2018-04-29T10:20:52.634Z,59.6
2018-04-29T10:21:43.250Z,59.6
2018-04-29T10:22:32.748Z,59.7
2018-04-29T10:23:23.410Z,59.8
2018-04-29T10:24:13.163Z,59.8
2018-04-29T10:25:03.230Z,59.8
2018-04-29T10:25:53.666Z,59.9
2018-04-29T10:26:43.725Z,59.9
2018-04-29T10:27:33.434Z,59.9
2018-04-29T10:28:23.778Z,60
2018-04-29T10:29:13.855Z,60
2018-04-29T10:30:03.939Z,60.1
2018-04-29T10:30:53.435Z,60.1
2018-04-29T10:31:43.770Z,60.2
2018-04-29T10:32:33.923Z,60.3
2018-04-29T10:33:23.936Z,60.3
2018-04-29T10:34:13.746Z,60.4
2018-04-29T10:35:03.755Z,60.4
2018-04-29T10:35:54.093Z,60.4
2018-04-29T10:36:43.874Z,60.5
2018-04-29T10:37:34.505Z,60.5
2018-04-29T10:38:23.704Z,60.6
2018-04-29T10:39:14.383Z,60.6
2018-04-29T10:40:04.428Z,60.6
2018-04-29T10:40:54.145Z,60.7
2018-04-29T10:41:44.274Z,60.8
2018-04-29T10:42:34.878Z,60.8
2018-04-29T10:43:25.000Z,60.8
2018-04-29T10:44:15.113Z,60.9
2018-04-29T10:45:04.518Z,60.9
2018-04-29T10:45:54.973Z,60.9
2018-04-29T10:46:45.196Z,61
2018-04-29T10:47:34.719Z,61.1
2018-04-29T10:48:25.070Z,61.1
2018-04-29T10:49:15.430Z,61.1
2018-04-29T10:50:05.519Z,61.2
2018-04-29T10:50:54.997Z,61.3
2018-04-29T10:51:45.059Z,61.3
2018-04-29T10:52:36.029Z,61.3
2018-04-29T10:53:24.639Z,61.4
2018-04-29T10:54:15.820Z,61.4
2018-04-29T10:55:05.633Z,61.4
2018-04-29T10:55:55.668Z,61.5
2018-04-29T10:56:45.787Z,61.5
2018-04-29T10:57:35.518Z,61.6
2018-04-29T10:58:25.295Z,61.6
2018-04-29T10:59:15.950Z,61.6
2018-04-29T11:00:06.306Z,61.7
2018-04-29T11:00:55.535Z,61.8
2018-04-29T11:01:46.169Z,61.8
2018-04-29T11:02:36.486Z,61.8
2018-04-29T11:03:25.820Z,61.9
2018-04-29T11:04:17.111Z,61.9
2018-04-29T11:05:06.132Z,61.9
2018-04-29T11:05:56.778Z,62
2018-04-29T11:06:46.861Z,62
2018-04-29T11:07:36.363Z,62.1
2018-04-29T11:08:26.658Z,62.1
2018-04-29T11:09:17.073Z,62.1
2018-04-29T11:10:06.821Z,62.2
2018-04-29T11:10:56.866Z,62.2
2018-04-29T11:11:47.684Z,62.3
2018-04-29T11:12:36.475Z,62.3
2018-04-29T11:13:26.782Z,62.3
2018-04-29T11:14:17.413Z,62.4
2018-04-29T11:15:07.508Z,62.4
2018-04-29T11:15:56.772Z,62.4
2018-04-29T11:16:47.608Z,62.4
2018-04-29T11:17:36.833Z,62.5
2018-04-29T11:18:27.037Z,62.6
2018-04-29T11:19:17.554Z,62.6
2018-04-29T11:20:07.589Z,62.6
2018-04-29T11:20:57.492Z,62.7
2018-04-29T11:21:48.054Z,62.7
2018-04-29T11:22:37.568Z,62.8
2018-04-29T11:23:27.566Z,62.8
2018-04-29T11:24:17.644Z,62.8
2018-04-29T11:25:07.702Z,62.8
2018-04-29T11:25:58.117Z,62.9